ADDS TAF Board (Experimental) INFO

IDs: Format: Expanded Condensed

Updated at: 1349 UTC 22 Oct 2014

KTPA - Tampa Intl Arpt, FL, US

Issued at 1130 UTC 22 Oct 2014
Time1253Z22/14Z22/15Z22/16Z22/17Z22/18Z22/19Z22/20Z22/21Z22/22Z22/23Z23/00Z23/01Z23/02Z
TypeOBSPRVLPRVLPRVLPRVLPRVLPRVLPRVLPRVLPRVLPRVLPRVLPRVLPRVL
VIS10>6>6>6>6>6>6>6>6>6>6>6>6>6
CIG--250------------------------
CoverFEWBKNSCTSCTSCTSCTSCTSCTSCTSCTSCTSCTSCTSCT
FltCat--VFRVFRVFRVFRVFRVFRVFRVFRVFRVFRVFRVFRVFR
WX----------------------------
WDir40VRB303030303030303030303030
WSpd53777777777777
WGst----------------------------
R01/19
XWnd-3VRB-3-3-3-3-3-3-3-3-3-3-3-3
HWnd4VRB666666666666
R10/28
XWnd4VRB666666666666
HWnd3VRB333333333333
Raw TAF
KTPA 221130Z 2212/2312 VRB03KT P6SM BKN250
  FM221500 03007KT P6SM SCT250


Raw METAR
KTPA 221253Z 04005KT 10SM FEW130 FEW250 22/16 A2999 RMK AO2 SLP154 T02170161

TAF Board Legend

Hazard VFR MVFR IFR LIFR
Visibility (sm) >5 3≤X≤5 1≤X<3 <1
Ceiling (100 ft) >30 10≤X≤30 5≤X<10 <5
Wind Speed (kt) <10 10≤X<20 20≤X<30 ≥30
Wind Gust (kt) <15 15≤X<25 25≤X<35 ≥35
Weather No Wx Reported VCTS,-TS,-FZRA TS,FZRA +TS,+FZRA


Page loaded:  13:49 UTC  |   06:49 AM Pacific  |   07:49 AM Mountain  |   08:49 AM Central  |   09:49 AM Eastern

 

ADVISORIES

FORECASTS

FORECASTS

OBSERVATIONS

USER TOOLS

ABOUT US